Time;durP1;ratioP1;P1;durP2;ratioP2;P2;SDS_P1;SDS_P2;PMS_P1;PMS_P2;Temp;Humidity;BMP_temperature;BMP_pressure;BME280_temperature;BME280_humidity;BME280_pressure;Samples;Min_cycle;Max_cycle;Signal;HPM_P1;HPM_P2
2023/08/21 00:01:56;;;;;;;7.77;4.47;;;;;;;27.00;58.71;101015.09;4090339;29;20066;-67
2023/08/21 00:03:59;;;;;;;6.70;4.50;;;;;;;27.03;58.76;101022.09;4112987;28;20042;-67
2023/08/21 00:06:02;;;;;;;7.05;4.13;;;;;;;27.05;59.00;101016.69;4091248;29;20105;-67
2023/08/21 00:08:05;;;;;;;9.45;4.35;;;;;;;27.04;59.39;101018.47;4091462;29;20099;-67
2023/08/21 00:10:08;;;;;;;7.80;5.13;;;;;;;27.01;58.74;101021.28;4096187;29;20487;-68
2023/08/21 00:12:11;;;;;;;10.27;5.43;;;;;;;27.02;58.23;101025.69;4091718;29;20051;-68
2023/08/21 00:14:14;;;;;;;8.63;4.90;;;;;;;26.92;58.83;101025.22;4095997;28;20131;-68
2023/08/21 00:16:19;;;;;;;6.85;4.78;;;;;;;26.95;58.81;101022.41;4093452;29;20417;-67
2023/08/21 00:18:22;;;;;;;7.72;4.60;;;;;;;26.96;59.45;101017.97;4105497;23;20040;-59
2023/08/21 00:20:25;;;;;;;11.23;5.35;;;;;;;26.96;58.85;101017.97;4083880;29;20052;-59
2023/08/21 00:22:28;;;;;;;7.20;4.38;;;;;;;26.95;59.32;101017.09;4083502;29;20122;-59
2023/08/21 00:24:31;;;;;;;7.93;4.45;;;;;;;26.92;59.55;101019.91;4078986;29;20571;-59
2023/08/21 00:26:34;;;;;;;8.15;5.03;;;;;;;26.92;59.64;101022.56;4082757;29;20047;-58
2023/08/21 00:28:37;;;;;;;10.50;4.95;;;;;;;26.88;59.61;101022.78;4081033;29;20058;-59
2023/08/21 00:30:40;;;;;;;7.18;4.72;;;;;;;26.85;59.82;101022.91;4081538;29;20131;-58
2023/08/21 00:32:44;;;;;;;8.15;5.10;;;;;;;26.83;59.52;101017.66;4081752;29;20494;-58
2023/08/21 00:34:47;;;;;;;;;;;;;;;26.75;59.34;101026.00;4081671;29;20070;-59
2023/08/21 00:36:50;;;;;;;10.07;5.05;;;;;;;26.76;60.00;101019.72;4082250;29;19999;-58
2023/08/21 00:38:52;;;;;;;10.75;5.70;;;;;;;26.78;59.49;101011.63;4090070;29;20078;-58
2023/08/21 00:40:57;;;;;;;7.30;5.13;;;;;;;26.70;60.05;101025.34;4082007;29;20126;-58
2023/08/21 00:43:00;;;;;;;6.90;5.05;;;;;;;26.69;59.78;101022.72;4082929;29;20543;-58
2023/08/21 00:45:03;;;;;;;8.35;4.47;;;;;;;26.69;59.89;101018.25;4097862;29;20043;-58
2023/08/21 00:47:07;;;;;;;6.32;4.65;;;;;;;26.73;60.26;101013.66;4081102;29;20044;-59
2023/08/21 00:49:12;;;;;;;8.85;4.80;;;;;;;26.72;60.52;101012.81;4082686;29;20076;-58
2023/08/21 00:51:17;;;;;;;6.57;4.90;;;;;;;26.75;60.04;101012.66;4079637;29;20084;-58
2023/08/21 00:53:20;;;;;;;;;;;;;;;26.71;60.07;101010.19;4083812;29;20044;-58
2023/08/21 00:55:23;;;;;;;11.82;5.05;;;;;;;26.71;60.14;101020.84;4098843;29;20009;-58
2023/08/21 00:57:27;;;;;;;8.13;4.63;;;;;;;26.71;60.36;101015.50;4065245;29;20072;-58
2023/08/21 00:59:30;;;;;;;7.60;4.85;;;;;;;26.71;60.63;101021.75;4082521;29;20039;-58
2023/08/21 01:01:34;;;;;;;7.82;4.60;;;;;;;26.66;60.44;101018.38;4081986;29;20042;-58
2023/08/21 01:03:37;;;;;;;7.07;4.85;;;;;;;26.60;60.96;101015.97;4081154;29;20082;-58
2023/08/21 01:05:41;;;;;;;8.07;4.93;;;;;;;26.61;60.92;101015.03;4080221;29;20055;-57
2023/08/21 01:07:51;;;;;;;7.38;5.22;;;;;;;26.54;60.67;101014.44;4080522;29;20043;-57
2023/08/21 01:10:04;;;;;;;6.20;4.65;;;;;;;26.52;61.09;101021.66;4080410;29;20044;-58
2023/08/21 01:12:13;;;;;;;12.10;5.22;;;;;;;26.55;60.82;101010.84;4083117;29;20448;-58
2023/08/21 01:14:28;;;;;;;6.72;4.85;;;;;;;26.56;61.05;101025.03;4097360;29;20457;-58
2023/08/21 01:16:33;;;;;;;8.63;5.32;;;;;;;26.55;61.20;101016.19;4081417;29;20135;-58
2023/08/21 01:18:38;;;;;;;9.13;5.95;;;;;;;26.55;61.21;101021.50;4081685;29;21479;-57
2023/08/21 01:20:44;;;;;;;10.13;5.50;;;;;;;26.52;61.49;101021.66;4093651;29;20051;-58
2023/08/21 01:22:48;;;;;;;7.53;4.97;;;;;;;26.52;61.18;101021.66;4081473;29;20039;-58
2023/08/21 01:24:52;;;;;;;9.02;4.97;;;;;;;26.52;60.89;101026.97;4096635;29;20047;-57
2023/08/21 01:26:55;;;;;;;11.27;5.28;;;;;;;26.50;61.45;101031.50;4095737;29;20039;-58
2023/08/21 01:28:58;;;;;;;8.20;5.18;;;;;;;26.48;61.46;101034.22;4077639;29;20070;-58
2023/08/21 01:31:08;;;;;;;9.77;5.10;;;;;;;26.43;61.74;101033.59;4082065;29;20096;-58
2023/08/21 01:33:16;;;;;;;7.55;4.75;;;;;;;26.41;61.29;101032.75;4095225;29;20046;-58
2023/08/21 01:35:21;;;;;;;7.80;5.13;;;;;;;26.38;61.17;101030.22;4095217;29;20091;-59
2023/08/21 01:37:25;;;;;;;9.88;5.18;;;;;;;26.40;61.29;101030.16;4079935;29;20036;-58
2023/08/21 01:39:30;;;;;;;10.93;5.53;;;;;;;26.41;60.93;101026.56;4095939;29;20031;-58
2023/08/21 01:41:34;;;;;;;8.20;4.83;;;;;;;26.41;61.17;101030.09;4096245;29;20074;-58
2023/08/21 01:43:37;;;;;;;7.78;5.53;;;;;;;26.39;61.42;101031.97;4078168;29;20291;-58
2023/08/21 01:45:39;;;;;;;9.60;5.28;;;;;;;26.36;61.61;101034.78;4079237;29;20482;-58
2023/08/21 01:47:42;;;;;;;7.80;4.88;;;;;;;26.33;61.76;101032.25;4079113;29;20044;-58
2023/08/21 01:49:45;;;;;;;7.93;5.63;;;;;;;26.31;61.49;101036.75;4079852;29;20405;-58
2023/08/21 01:51:48;;;;;;;9.90;5.95;;;;;;;26.23;61.78;101038.91;4081988;29;20059;-58
2023/08/21 01:53:51;;;;;;;8.90;4.93;;;;;;;26.22;61.75;101030.00;4081094;29;20043;-58
2023/08/21 01:55:54;;;;;;;8.93;5.50;;;;;;;26.23;61.57;101037.09;4080458;29;20597;-58
2023/08/21 01:57:58;;;;;;;10.50;5.53;;;;;;;26.26;61.69;101038.75;4081530;29;20289;-58
2023/08/21 02:00:01;;;;;;;;;;;;;;;26.21;61.62;101030.09;4063844;29;20048;-58
2023/08/21 02:02:15;;;;;;;9.97;6.43;;;;;;;26.19;61.07;101030.16;4081260;29;20024;-58
2023/08/21 02:04:19;;;;;;;10.85;6.28;;;;;;;26.22;60.25;101035.34;4079029;29;20039;-58
2023/08/21 02:06:21;;;;;;;7.18;6.00;;;;;;;26.09;60.47;101036.78;4093191;29;20039;-59
2023/08/21 02:08:31;;;;;;;12.02;6.68;;;;;;;26.08;60.31;101038.59;4096315;29;20465;-58
2023/08/21 02:10:34;;;;;;;8.25;5.80;;;;;;;26.08;59.96;101040.38;4079874;29;20496;-58
2023/08/21 02:12:36;;;;;;;7.57;5.57;;;;;;;25.89;60.37;101043.78;4080692;29;20558;-58
2023/08/21 02:14:45;;;;;;;9.20;6.32;;;;;;;25.79;60.81;101037.97;4079460;29;20050;-58
2023/08/21 02:16:48;;;;;;;;;;;;;;;25.75;60.82;101041.66;4080089;29;20549;-58
2023/08/21 02:18:51;;;;;;;8.60;6.30;;;;;;;25.70;60.80;101037.44;4096073;29;19977;-58
2023/08/21 02:20:55;;;;;;;7.03;5.47;;;;;;;25.61;61.64;101039.56;4096588;28;20122;-58
2023/08/21 02:22:58;;;;;;;10.63;6.82;;;;;;;25.67;61.35;101035.78;4081352;29;20038;-58
2023/08/21 02:25:01;;;;;;;11.27;6.22;;;;;;;25.73;61.07;101042.66;4094947;29;20035;-58
2023/08/21 02:27:04;;;;;;;11.20;6.50;;;;;;;25.66;61.23;101042.03;4079915;29;20047;-58
2023/08/21 02:29:07;;;;;;;10.05;6.35;;;;;;;25.61;61.39;101039.56;4084304;29;20119;-58
2023/08/21 02:31:11;;;;;;;9.63;6.60;;;;;;;25.61;61.25;101033.34;4079963;29;20127;-58
2023/08/21 02:33:14;;;;;;;10.63;5.78;;;;;;;25.57;61.60;101034.44;4095270;29;20069;-58
2023/08/21 02:35:18;;;;;;;10.57;6.43;;;;;;;25.56;61.29;101035.34;4095494;29;20508;-58
2023/08/21 02:37:21;;;;;;;9.32;6.45;;;;;;;25.53;62.43;101043.47;4080203;29;20067;-58
2023/08/21 02:39:24;;;;;;;9.40;6.32;;;;;;;25.64;61.69;101046.53;4079677;29;20043;-58
2023/08/21 02:41:27;;;;;;;12.70;6.05;;;;;;;25.68;61.34;101037.50;4092763;28;20067;-57
2023/08/21 02:43:29;;;;;;;9.38;6.43;;;;;;;25.68;61.28;101053.50;4078987;29;20067;-58
2023/08/21 02:45:32;;;;;;;13.45;6.80;;;;;;;25.59;61.37;101046.72;4078401;29;20514;-58
2023/08/21 02:47:38;;;;;;;11.07;6.53;;;;;;;25.63;61.65;101046.59;4073965;29;20479;-58
2023/08/21 02:49:41;;;;;;;10.23;7.07;;;;;;;25.58;61.58;101044.13;4094600;29;20408;-58
2023/08/21 02:51:44;;;;;;;12.18;7.18;;;;;;;25.60;61.38;101044.97;4077591;29;20031;-58
2023/08/21 02:53:47;;;;;;;8.48;6.65;;;;;;;25.54;61.46;101042.50;4079738;29;20122;-58
2023/08/21 02:55:49;;;;;;;11.00;6.63;;;;;;;25.47;61.52;101041.91;4079897;29;20090;-57
2023/08/21 02:57:52;;;;;;;7.60;6.47;;;;;;;25.41;62.26;101043.00;4079479;29;20043;-57
2023/08/21 02:59:55;;;;;;;10.77;7.25;;;;;;;25.42;62.02;101046.53;4096356;29;20074;-57
2023/08/21 03:01:58;;;;;;;7.18;6.47;;;;;;;25.44;61.93;101048.19;4094166;28;20130;-57
2023/08/21 03:04:02;;;;;;;8.60;6.57;;;;;;;25.38;61.97;101044.94;4077766;29;20466;-58
2023/08/21 03:06:05;;;;;;;7.43;5.97;;;;;;;25.36;62.53;101044.09;4095227;29;20050;-58
2023/08/21 03:08:08;;;;;;;8.82;6.22;;;;;;;25.42;62.65;101043.84;4078923;29;20048;-58
2023/08/21 03:10:11;;;;;;;9.27;7.28;;;;;;;25.48;62.20;101045.41;4064251;29;20048;-57
2023/08/21 03:12:15;;;;;;;9.00;6.75;;;;;;;25.50;62.13;101046.25;4093029;29;20043;-58
2023/08/21 03:14:18;;;;;;;8.27;6.50;;;;;;;25.49;62.08;101052.50;4078067;29;20044;-58
2023/08/21 03:16:21;;;;;;;13.40;7.22;;;;;;;25.51;61.94;101045.28;4080709;29;20071;-58
2023/08/21 03:18:23;;;;;;;9.10;7.07;;;;;;;25.43;61.70;101048.25;4079169;29;20548;-58
2023/08/21 03:20:27;;;;;;;12.20;6.53;;;;;;;25.37;62.12;101037.84;4081071;29;20429;-58
2023/08/21 03:22:32;;;;;;;8.57;7.28;;;;;;;25.34;62.36;101044.16;4096896;28;20036;-57
2023/08/21 03:24:35;;;;;;;10.60;7.55;;;;;;;25.33;62.06;101044.22;4079911;29;20031;-57
2023/08/21 03:26:38;;;;;;;8.25;6.97;;;;;;;25.33;62.38;101039.75;4095954;28;20067;-58
2023/08/21 03:28:41;;;;;;;9.80;7.40;;;;;;;25.26;62.49;101032.91;4097960;28;20042;-57
2023/08/21 03:30:44;;;;;;;13.13;8.40;;;;;;;25.30;62.12;101034.53;4096356;28;20036;-58
2023/08/21 03:32:46;;;;;;;13.70;8.68;;;;;;;25.24;62.43;101040.09;4079505;29;20052;-57
2023/08/21 03:34:49;;;;;;;8.25;7.40;;;;;;;25.22;62.40;101039.28;4056176;29;20120;-58
2023/08/21 03:36:54;;;;;;;12.93;8.53;;;;;;;25.16;62.84;101043.03;4079895;29;20123;-57
2023/08/21 03:38:56;;;;;;;10.45;7.85;;;;;;;25.21;62.72;101041.06;4095402;29;20748;-58
2023/08/21 03:41:00;;;;;;;11.40;7.82;;;;;;;25.17;63.06;101044.75;4079183;29;20039;-58
2023/08/21 03:43:04;;;;;;;13.13;8.88;;;;;;;25.16;62.84;101036.81;4077119;29;20054;-58
2023/08/21 03:45:08;;;;;;;12.40;7.00;;;;;;;25.14;62.83;101036.88;4079607;29;20054;-57
2023/08/21 03:47:13;;;;;;;10.55;7.82;;;;;;;25.18;63.11;101046.50;4078740;29;20131;-57
2023/08/21 03:49:27;;;;;;;9.80;7.50;;;;;;;25.20;62.87;101049.09;4095164;29;20114;-58
2023/08/21 03:51:30;;;;;;;10.43;8.45;;;;;;;25.19;62.99;101044.69;4094560;29;20135;-58
2023/08/21 03:53:34;;;;;;;12.65;8.13;;;;;;;25.20;62.82;101049.09;4077099;29;20072;-58
2023/08/21 03:55:36;;;;;;;;;;;;;;;25.12;63.47;101053.88;4077407;29;20040;-57
2023/08/21 03:57:39;;;;;;;10.38;7.78;;;;;;;25.16;62.91;101052.78;4074848;29;20386;-59
2023/08/21 03:59:42;;;;;;;14.52;9.05;;;;;;;25.16;62.77;101058.13;4078560;29;20589;-58
2023/08/21 04:01:45;;;;;;;12.85;8.35;;;;;;;25.04;63.31;101056.78;4093267;29;20046;-59
2023/08/21 04:03:48;;;;;;;11.80;8.88;;;;;;;24.94;63.47;101056.28;4096308;28;20201;-58
2023/08/21 04:05:51;;;;;;;10.80;9.40;;;;;;;24.94;63.44;101064.25;4095315;29;20074;-59
2023/08/21 04:07:54;;;;;;;11.25;7.53;;;;;;;24.86;63.61;101066.31;4077088;29;20122;-58
2023/08/21 04:09:58;;;;;;;10.88;7.80;;;;;;;24.83;63.93;101059.28;4076829;29;20050;-59
2023/08/21 04:12:02;;;;;;;13.25;8.75;;;;;;;24.89;63.69;101066.19;4079762;29;20458;-58
2023/08/21 04:14:05;;;;;;;15.63;9.35;;;;;;;24.85;63.77;101064.56;4079213;29;20057;-59
2023/08/21 04:16:08;;;;;;;12.93;8.18;;;;;;;24.78;63.93;101060.38;4093452;28;20074;-58
2023/08/21 04:18:11;;;;;;;16.98;8.88;;;;;;;24.73;64.15;101068.53;4079232;29;20039;-59
2023/08/21 04:20:21;;;;;;;13.73;9.25;;;;;;;24.77;64.18;101071.97;4077251;29;20067;-59
2023/08/21 04:22:24;;;;;;;12.38;8.82;;;;;;;24.79;64.06;101070.97;4078013;29;20040;-59
2023/08/21 04:24:27;;;;;;;10.75;9.18;;;;;;;24.82;63.98;101070.84;4079415;29;20042;-58
2023/08/21 04:26:31;;;;;;;13.00;8.63;;;;;;;24.71;64.25;101068.59;4073373;29;20223;-58
2023/08/21 04:28:34;;;;;;;10.77;9.38;;;;;;;24.70;64.33;101071.31;4084814;28;20146;-58
2023/08/21 04:30:40;;;;;;;15.80;10.10;;;;;;;24.68;64.36;101074.00;4075595;29;20095;-58
2023/08/21 04:32:44;;;;;;;12.25;8.60;;;;;;;24.62;64.63;101073.34;4078203;29;20139;-58
2023/08/21 04:34:47;;;;;;;11.52;8.50;;;;;;;24.60;64.57;101080.53;4094404;29;20031;-58
2023/08/21 04:36:52;;;;;;;13.30;8.57;;;;;;;24.58;64.86;101075.22;4091561;29;20039;-58
2023/08/21 04:38:55;;;;;;;12.68;9.82;;;;;;;24.57;64.86;101079.69;4094717;29;20297;-58
2023/08/21 04:41:06;;;;;;;13.40;8.65;;;;;;;24.63;64.50;101080.41;4077955;29;20055;-58
2023/08/21 04:43:11;;;;;;;20.80;10.77;;;;;;;24.56;64.81;101069.97;4078092;29;20453;-58
2023/08/21 04:45:15;;;;;;;13.60;9.52;;;;;;;24.60;64.85;101080.53;4076103;29;20052;-58
2023/08/21 04:47:23;;;;;;;12.40;10.35;;;;;;;24.60;64.66;101080.53;4080353;29;20040;-58
2023/08/21 04:49:29;;;;;;;15.68;10.20;;;;;;;24.54;64.74;101086.88;4079974;29;20042;-58
2023/08/21 04:51:32;;;;;;;11.68;9.70;;;;;;;24.53;64.78;101080.69;4080835;29;20485;-58
2023/08/21 04:53:37;;;;;;;18.02;9.80;;;;;;;24.51;64.75;101085.19;4100940;28;20035;-59
2023/08/21 04:55:46;;;;;;;11.32;10.00;;;;;;;24.43;64.97;101083.69;4083539;29;20140;-58
2023/08/21 04:57:49;;;;;;;12.10;10.68;;;;;;;24.42;65.07;101089.97;4081112;29;20517;-59
2023/08/21 04:59:53;;;;;;;14.00;10.25;;;;;;;24.30;65.49;101097.41;4065180;29;20040;-58
2023/08/21 05:01:57;;;;;;;16.08;10.40;;;;;;;24.28;65.54;101085.94;4092354;29;20560;-58
2023/08/21 05:04:01;;;;;;;14.30;10.60;;;;;;;24.26;65.66;101093.13;4079195;29;20458;-59
2023/08/21 05:06:04;;;;;;;11.93;10.07;;;;;;;24.24;65.66;101089.66;4081312;29;20114;-59
2023/08/21 05:08:08;;;;;;;13.38;9.70;;;;;;;24.20;65.88;101090.66;4094891;29;20420;-59
2023/08/21 05:10:11;;;;;;;13.45;10.07;;;;;;;24.19;65.94;101091.56;4096918;29;20588;-59
2023/08/21 05:12:15;;;;;;;11.23;9.82;;;;;;;24.20;66.03;101094.19;4080926;29;20055;-59
2023/08/21 05:14:19;;;;;;;11.05;9.85;;;;;;;24.23;66.15;101098.53;4081097;29;20067;-58
2023/08/21 05:16:23;;;;;;;11.48;9.32;;;;;;;24.23;65.96;101103.84;4081566;29;20454;-58
2023/08/21 05:18:28;;;;;;;17.08;10.93;;;;;;;24.29;65.99;101097.47;4097257;29;20043;-58
2023/08/21 05:20:32;;;;;;;14.05;10.05;;;;;;;24.28;65.96;101099.25;4080882;29;20044;-59
2023/08/21 05:22:35;;;;;;;13.25;9.40;;;;;;;24.26;65.91;101098.44;4094102;29;20050;-59
2023/08/21 05:24:38;;;;;;;16.58;10.32;;;;;;;24.30;65.97;101105.38;4095444;29;20027;-59
2023/08/21 05:26:42;;;;;;;12.48;9.65;;;;;;;24.30;65.73;101105.38;4095175;29;20098;-58
2023/08/21 05:28:45;;;;;;;15.27;10.77;;;;;;;24.32;65.83;101103.53;4095764;29;20481;-58
2023/08/21 05:30:49;;;;;;;9.50;8.45;;;;;;;24.39;65.84;101109.53;4077630;29;20035;-59
2023/08/21 05:32:55;;;;;;;15.43;10.55;;;;;;;24.42;65.86;101116.53;4064861;29;20131;-59
2023/08/21 05:34:59;;;;;;;18.45;11.18;;;;;;;24.59;65.16;101116.88;4081003;29;20352;-58
2023/08/21 05:37:02;;;;;;;18.23;12.18;;;;;;;24.59;65.14;101114.22;4079518;29;20127;-59
2023/08/21 05:39:06;;;;;;;20.20;10.60;;;;;;;24.56;64.99;101116.91;4065015;29;20044;-59
2023/08/21 05:41:12;;;;;;;19.88;11.18;;;;;;;24.52;65.19;101120.63;4064288;29;20056;-59
2023/08/21 05:43:17;;;;;;;13.80;9.57;;;;;;;24.48;65.55;101117.19;4079920;29;20064;-58
2023/08/21 05:45:19;;;;;;;30.45;11.25;;;;;;;24.53;65.29;101117.03;4096245;29;20350;-59
2023/08/21 05:47:24;;;;;;;20.75;11.77;;;;;;;24.59;65.14;101127.50;4080721;29;20123;-58
2023/08/21 05:49:28;;;;;;;17.85;11.05;;;;;;;24.54;65.22;101118.78;4074437;29;20418;-59
2023/08/21 05:51:30;;;;;;;17.70;11.48;;;;;;;24.46;65.35;101121.69;4062679;29;20075;-59
2023/08/21 05:53:33;;;;;;;25.98;11.93;;;;;;;24.48;65.61;101130.47;4093128;28;20729;-59
2023/08/21 05:55:38;;;;;;;21.08;11.48;;;;;;;24.47;65.79;101127.88;4096284;28;20604;-59
2023/08/21 05:57:40;;;;;;;24.27;12.18;;;;;;;24.57;64.98;101124.00;4072660;29;20126;-59
2023/08/21 05:59:45;;;;;;;27.70;12.82;;;;;;;24.46;65.42;101127.00;4095552;29;20039;-59
2023/08/21 06:01:48;;;;;;;22.17;11.98;;;;;;;24.52;65.19;101141.91;4097326;29;20437;-59
2023/08/21 06:03:53;;;;;;;19.90;11.88;;;;;;;24.58;65.18;101131.06;4097730;29;20131;-59
2023/08/21 06:06:17;;;;;;;21.30;12.18;;;;;;;24.62;64.81;101132.72;4081859;29;20142;-59
2023/08/21 06:08:20;;;;;;;26.77;13.60;;;;;;;24.61;64.88;101136.28;4094105;28;20476;-59
2023/08/21 06:10:23;;;;;;;19.10;11.27;;;;;;;24.56;65.16;101136.41;4079552;29;20040;-59
2023/08/21 06:12:26;;;;;;;23.55;12.93;;;;;;;24.71;64.64;101136.84;4098278;28;20488;-59
2023/08/21 06:14:31;;;;;;;16.45;11.10;;;;;;;24.65;64.80;101137.94;4066074;29;20100;-59
2023/08/21 06:16:36;;;;;;;18.13;11.57;;;;;;;24.59;65.18;101132.84;4082133;29;20058;-59
2023/08/21 06:18:39;;;;;;;19.65;11.68;;;;;;;24.65;65.12;101137.94;4096226;23;20040;-64
2023/08/21 06:20:43;;;;;;;15.73;12.30;;;;;;;24.74;64.39;101137.59;4080532;29;20051;-64
2023/08/21 06:22:47;;;;;;;19.48;11.27;;;;;;;24.76;64.49;101140.22;4076396;29;20089;-64
2023/08/21 06:24:50;;;;;;;18.77;10.55;;;;;;;24.78;64.44;101133.06;4082277;29;20040;-64
2023/08/21 06:26:53;;;;;;;17.48;10.32;;;;;;;24.86;64.11;101140.78;4066299;29;20087;-64
2023/08/21 06:28:56;;;;;;;22.50;11.55;;;;;;;24.83;64.54;101143.53;4079944;28;20462;-64
2023/08/21 06:31:02;;;;;;;20.88;12.23;;;;;;;24.92;64.14;101143.22;4073851;29;20074;-62
2023/08/21 06:33:07;;;;;;;18.52;11.30;;;;;;;24.98;63.62;101145.66;4071822;29;20074;-62
2023/08/21 06:35:10;;;;;;;19.35;12.60;;;;;;;24.97;63.67;101154.59;4060812;29;20051;-64
2023/08/21 06:37:13;;;;;;;19.77;14.20;;;;;;;24.99;63.58;101144.75;4066228;29;20136;-64
2023/08/21 06:39:18;;;;;;;18.67;12.18;;;;;;;24.99;63.58;101143.88;4082093;29;20549;-64
2023/08/21 06:41:21;;;;;;;17.20;12.13;;;;;;;24.90;64.14;101142.41;4054694;29;20490;-65
2023/08/21 06:43:25;;;;;;;25.25;11.55;;;;;;;24.98;63.88;101142.13;4060817;29;20041;-64
2023/08/21 06:45:32;;;;;;;19.60;13.13;;;;;;;25.12;63.51;101144.31;4060056;29;20036;-64
2023/08/21 06:47:35;;;;;;;19.70;12.30;;;;;;;25.21;63.06;101151.97;4059763;29;20139;-64
2023/08/21 06:49:38;;;;;;;21.35;13.52;;;;;;;25.11;63.70;101155.88;4060692;29;20105;-64
2023/08/21 06:51:41;;;;;;;20.17;13.60;;;;;;;25.14;63.57;101145.13;4053362;29;20076;-64
2023/08/21 06:53:44;;;;;;;17.38;11.48;;;;;;;25.11;64.00;101148.75;4063512;29;20522;-64
2023/08/21 06:55:48;;;;;;;19.63;13.05;;;;;;;25.23;63.77;101148.34;4064477;29;20074;-68
2023/08/21 06:57:54;;;;;;;20.52;13.80;;;;;;;25.38;62.97;101154.06;4064040;29;20132;-66
2023/08/21 06:59:56;;;;;;;22.17;12.15;;;;;;;25.31;63.25;101145.41;4063019;29;20127;-66
2023/08/21 07:01:59;;;;;;;16.05;11.05;;;;;;;25.29;63.37;101143.69;4063975;29;20044;-68
2023/08/21 07:04:02;;;;;;;22.52;12.02;;;;;;;25.44;62.67;101154.69;4065857;29;20099;-66
2023/08/21 07:06:06;;;;;;;22.88;12.40;;;;;;;25.51;62.63;101154.44;4061346;29;20136;-66
2023/08/21 07:08:08;;;;;;;19.45;12.52;;;;;;;25.58;62.33;101147.97;4063984;29;20052;-66
2023/08/21 07:10:12;;;;;;;29.00;12.90;;;;;;;25.69;62.02;101152.91;4064033;29;20046;-68
2023/08/21 07:12:16;;;;;;;26.42;12.18;;;;;;;25.59;62.51;101149.72;4064180;29;20052;-67
2023/08/21 07:14:18;;;;;;;18.80;11.98;;;;;;;25.60;62.57;101157.66;4063549;29;20561;-67
2023/08/21 07:16:21;;;;;;;24.05;11.70;;;;;;;25.54;62.32;101154.34;4064319;29;20039;-67
2023/08/21 07:18:24;;;;;;;15.85;10.27;;;;;;;25.56;62.86;101149.84;4061043;29;20083;-67
2023/08/21 07:20:27;;;;;;;19.10;11.07;;;;;;;25.62;62.41;101152.25;4065783;29;20051;-67
2023/08/21 07:22:30;;;;;;;19.63;11.90;;;;;;;25.71;61.68;101148.38;4063789;29;20060;-67
2023/08/21 07:24:33;;;;;;;23.48;12.10;;;;;;;25.91;61.11;101151.16;4065286;29;20475;-67
2023/08/21 07:26:35;;;;;;;17.85;10.82;;;;;;;25.79;61.93;101144.50;4064216;29;20107;-67
2023/08/21 07:28:39;;;;;;;22.00;12.73;;;;;;;26.06;60.65;101144.38;4065323;29;20063;-67
2023/08/21 07:30:42;;;;;;;;;;;;;;;25.98;60.74;101141.13;4082012;29;20052;-67
2023/08/21 07:32:45;;;;;;;32.92;11.40;;;;;;;26.01;60.82;101153.50;4064974;29;19933;-67
2023/08/21 07:34:48;;;;;;;28.08;12.07;;;;;;;26.02;60.63;101145.44;4077692;29;20469;-67
2023/08/21 07:36:50;;;;;;;18.25;10.45;;;;;;;25.96;61.39;101140.31;4062676;29;20067;-67
2023/08/21 07:38:53;;;;;;;20.05;11.77;;;;;;;25.99;61.18;101149.97;4066187;29;20058;-67
2023/08/21 07:41:04;;;;;;;17.88;11.00;;;;;;;26.02;61.29;101149.88;4063673;29;20051;-67
2023/08/21 07:43:07;;;;;;;21.02;11.00;;;;;;;26.11;60.94;101149.53;4065127;29;20048;-67
2023/08/21 07:45:11;;;;;;;14.32;10.85;;;;;;;26.23;60.52;101151.69;4047733;29;20131;-68
2023/08/21 07:47:14;;;;;;;19.02;10.18;;;;;;;26.27;60.77;101148.00;4060270;29;20036;-67
2023/08/21 07:49:17;;;;;;;14.63;10.20;;;;;;;26.36;60.29;101148.56;4061257;29;20059;-67
2023/08/21 07:51:20;;;;;;;19.48;9.88;;;;;;;26.44;60.18;101149.94;4076492;29;20103;-67
2023/08/21 07:53:23;;;;;;;18.52;11.57;;;;;;;26.69;59.01;101145.44;4063443;29;20107;-67
2023/08/21 07:55:26;;;;;;;20.48;10.27;;;;;;;26.61;58.90;101149.25;4064465;29;20399;-69
2023/08/21 07:57:30;;;;;;;18.27;11.20;;;;;;;26.71;58.53;101154.22;4061864;29;20032;-68
2023/08/21 07:59:33;;;;;;;22.38;11.52;;;;;;;26.54;59.53;101150.44;4062992;29;20051;-68
2023/08/21 08:01:37;;;;;;;14.35;9.63;;;;;;;26.52;59.63;101148.75;4063303;29;20040;-68
2023/08/21 08:03:40;;;;;;;;;;;;;;;26.52;59.99;101149.66;4063626;29;20478;-68
2023/08/21 08:05:43;;;;;;;13.85;9.05;;;;;;;26.72;59.64;101154.19;4061968;29;19927;-68
2023/08/21 08:07:57;;;;;;;11.03;8.93;;;;;;;26.69;59.36;101143.63;4063183;29;20036;-69
2023/08/21 08:09:59;;;;;;;17.70;10.52;;;;;;;26.81;58.35;101151.13;4061250;29;20410;-68
2023/08/21 08:12:03;;;;;;;13.18;8.93;;;;;;;26.89;58.65;101149.91;4046009;29;20057;-68
2023/08/21 08:14:08;;;;;;;15.05;8.75;;;;;;;27.01;57.99;101160.03;4063622;29;20048;-68
2023/08/21 08:16:11;;;;;;;15.38;9.13;;;;;;;27.05;57.44;101153.66;4061320;29;20130;-68
2023/08/21 08:18:14;;;;;;;13.10;8.88;;;;;;;27.10;58.08;101154.31;4063669;29;20131;-67
2023/08/21 08:20:17;;;;;;;14.23;9.02;;;;;;;27.16;58.30;101154.03;4065249;29;20430;-68
2023/08/21 08:22:20;;;;;;;12.95;9.65;;;;;;;27.30;57.22;101152.56;4064497;29;20118;-67
2023/08/21 08:24:23;;;;;;;13.63;8.77;;;;;;;27.34;57.86;101148.84;4067157;29;20126;-68
2023/08/21 08:26:26;;;;;;;11.85;9.05;;;;;;;27.25;58.03;101147.44;4065234;29;20043;-68
2023/08/21 08:28:29;;;;;;;11.10;8.32;;;;;;;27.35;58.25;101150.59;4068768;29;20087;-68
2023/08/21 08:30:32;;;;;;;17.83;8.82;;;;;;;27.38;58.02;101150.44;4066467;29;20040;-68
2023/08/21 08:32:35;;;;;;;13.80;8.85;;;;;;;27.51;57.89;101153.41;4067772;29;20044;-67
2023/08/21 08:34:39;;;;;;;16.90;9.73;;;;;;;27.65;57.72;101152.78;4080127;29;20122;-68
2023/08/21 08:36:42;;;;;;;;;;;;;;;27.76;56.91;101152.28;4063968;29;20581;-68
2023/08/21 08:38:45;;;;;;;12.60;9.63;;;;;;;27.75;57.54;101148.75;4082394;29;19923;-68
2023/08/21 08:40:48;;;;;;;12.82;9.73;;;;;;;27.85;56.72;101149.19;4065531;29;20044;-67
2023/08/21 08:42:51;;;;;;;17.63;10.73;;;;;;;27.98;56.30;101146.84;4064223;29;20071;-68
2023/08/21 08:44:55;;;;;;;13.85;8.55;;;;;;;27.99;56.41;101143.19;4066254;29;20076;-68
2023/08/21 08:46:59;;;;;;;12.10;8.73;;;;;;;28.05;56.29;101142.91;4062694;29;20058;-68
2023/08/21 08:49:05;;;;;;;15.88;11.32;;;;;;;28.21;55.44;101141.22;4065106;29;20048;-68
2023/08/21 08:51:10;;;;;;;16.90;9.45;;;;;;;28.21;56.13;101143.03;4067887;29;20048;-68
2023/08/21 08:53:13;;;;;;;19.85;8.48;;;;;;;28.26;55.79;101142.81;4064202;29;20261;-68
2023/08/21 08:55:19;;;;;;;13.00;8.40;;;;;;;28.32;56.12;101137.16;4066463;29;20040;-68
2023/08/21 08:57:22;;;;;;;10.52;8.00;;;;;;;28.39;56.03;101133.25;4065363;29;20071;-68
2023/08/21 08:59:25;;;;;;;15.30;9.20;;;;;;;28.52;55.51;101139.72;4082188;29;20051;-68
2023/08/21 09:01:28;;;;;;;12.10;9.43;;;;;;;28.61;54.82;101138.41;4065755;29;20410;-68
2023/08/21 09:03:41;;;;;;;18.30;10.38;;;;;;;28.76;53.80;101142.09;4063994;29;20530;-68
2023/08/21 09:05:44;;;;;;;14.20;9.77;;;;;;;28.82;54.06;101141.78;4062712;29;20044;-68
2023/08/21 09:08:03;;;;;;;12.25;8.32;;;;;;;28.89;53.08;101131.63;4066064;29;20525;-68
2023/08/21 09:10:15;;;;;;;17.52;9.98;;;;;;;28.91;52.95;101135.09;4080767;29;20569;-68
2023/08/21 09:12:18;;;;;;;9.73;7.68;;;;;;;28.91;53.66;101129.72;4064281;29;20048;-68
2023/08/21 09:14:27;;;;;;;11.98;8.80;;;;;;;29.03;52.99;101118.38;4064159;29;20409;-68
2023/08/21 09:16:30;;;;;;;10.10;7.10;;;;;;;29.03;53.32;101123.75;4062301;29;20064;-68
2023/08/21 09:18:35;;;;;;;15.43;7.85;;;;;;;29.16;52.39;101131.13;4066778;29;20052;-68
2023/08/21 09:20:40;;;;;;;10.65;6.68;;;;;;;29.21;53.27;101129.94;4065416;29;20076;-69
2023/08/21 09:22:56;;;;;;;16.35;7.75;;;;;;;29.25;52.41;101119.97;4065867;29;20040;-68
2023/08/21 09:25:05;;;;;;;8.93;6.47;;;;;;;29.29;52.64;101123.31;4065847;29;20459;-68
2023/08/21 09:27:17;;;;;;;9.45;7.07;;;;;;;29.31;52.23;101122.31;4062312;29;20051;-68
2023/08/21 09:29:20;;;;;;;11.00;6.88;;;;;;;29.36;52.25;101124.72;4077454;29;20112;-68
2023/08/21 09:31:23;;;;;;;10.73;7.68;;;;;;;29.49;51.21;101119.56;4063737;29;20044;-67
2023/08/21 09:33:27;;;;;;;9.55;6.97;;;;;;;29.55;51.46;101119.22;4064324;29;20040;-68